sensor_id;sensor_type;location;lat;lon;timestamp;pressure;altitude;pressure_sealevel;temperature;humidity
42511;BME280;28141;51.120;17.114;2022-10-22T00:01:13;101327.02;;;28.25;31.86
42511;BME280;28141;51.120;17.114;2022-10-22T00:04:17;101333.45;;;28.25;31.75
42511;BME280;28141;51.120;17.114;2022-10-22T00:07:21;101332.85;;;28.23;31.92
42511;BME280;28141;51.120;17.114;2022-10-22T00:10:26;101325.01;;;28.20;32.84
42511;BME280;28141;51.120;17.114;2022-10-22T00:13:59;101331.07;;;28.17;32.18
42511;BME280;28141;51.120;17.114;2022-10-22T00:17:03;101329.34;;;28.16;32.46
42511;BME280;28141;51.120;17.114;2022-10-22T00:20:07;101328.28;;;28.17;32.29
42511;BME280;28141;51.120;17.114;2022-10-22T00:23:11;101332.13;;;28.16;32.63
42511;BME280;28141;51.120;17.114;2022-10-22T00:26:15;101333.70;;;28.12;31.87
42511;BME280;28141;51.120;17.114;2022-10-22T00:29:18;101335.39;;;28.13;32.04
42511;BME280;28141;51.120;17.114;2022-10-22T00:32:23;101322.84;;;28.11;32.70
42511;BME280;28141;51.120;17.114;2022-10-22T00:35:26;101324.78;;;28.10;32.24
42511;BME280;28141;51.120;17.114;2022-10-22T00:38:30;101315.81;;;28.08;32.00
42511;BME280;28141;51.120;17.114;2022-10-22T00:41:33;101306.38;;;28.09;32.54
42511;BME280;28141;51.120;17.114;2022-10-22T00:48:22;101298.91;;;27.98;32.48
42511;BME280;28141;51.120;17.114;2022-10-22T00:51:30;101290.64;;;28.03;32.24
42511;BME280;28141;51.120;17.114;2022-10-22T00:54:34;101286.52;;;28.06;32.51
42511;BME280;28141;51.120;17.114;2022-10-22T00:57:39;101293.54;;;28.08;31.79
42511;BME280;28141;51.120;17.114;2022-10-22T01:00:43;101281.31;;;28.09;32.67
42511;BME280;28141;51.120;17.114;2022-10-22T01:03:48;101271.01;;;28.10;32.98
42511;BME280;28141;51.120;17.114;2022-10-22T01:06:52;101262.41;;;28.11;32.21
42511;BME280;28141;51.120;17.114;2022-10-22T01:13:55;101267.20;;;27.99;32.48
42511;BME280;28141;51.120;17.114;2022-10-22T01:17:07;101266.10;;;28.00;32.35
42511;BME280;28141;51.120;17.114;2022-10-22T01:20:27;101269.38;;;27.97;32.58
42511;BME280;28141;51.120;17.114;2022-10-22T01:27:26;101290.95;;;27.90;32.67
42511;BME280;28141;51.120;17.114;2022-10-22T01:30:32;101306.30;;;27.92;32.60
42511;BME280;28141;51.120;17.114;2022-10-22T01:33:38;101314.01;;;28.02;33.05
42511;BME280;28141;51.120;17.114;2022-10-22T01:36:44;101294.37;;;28.09;32.87
42511;BME280;28141;51.120;17.114;2022-10-22T01:39:49;101275.49;;;28.11;32.06
42511;BME280;28141;51.120;17.114;2022-10-22T01:43:00;101285.26;;;28.13;32.60
42511;BME280;28141;51.120;17.114;2022-10-22T01:46:30;101279.37;;;28.10;32.37
42511;BME280;28141;51.120;17.114;2022-10-22T01:50:03;101270.77;;;28.11;31.85
42511;BME280;28141;51.120;17.114;2022-10-22T02:00:08;101271.55;;;27.95;32.58
42511;BME280;28141;51.120;17.114;2022-10-22T02:03:15;101268.03;;;28.00;32.84
42511;BME280;28141;51.120;17.114;2022-10-22T02:06:24;101272.52;;;28.01;32.62
42511;BME280;28141;51.120;17.114;2022-10-22T02:09:30;101266.78;;;28.07;32.23
42511;BME280;28141;51.120;17.114;2022-10-22T02:12:34;101252.36;;;28.10;32.04
42511;BME280;28141;51.120;17.114;2022-10-22T02:15:40;101251.27;;;28.11;31.89
42511;BME280;28141;51.120;17.114;2022-10-22T02:22:28;101230.98;;;27.99;32.65
42511;BME280;28141;51.120;17.114;2022-10-22T02:25:36;101232.15;;;28.03;32.39
42511;BME280;28141;51.120;17.114;2022-10-22T02:28:51;101237.23;;;28.06;32.02
42511;BME280;28141;51.120;17.114;2022-10-22T02:31:55;101238.08;;;28.07;32.77
42511;BME280;28141;51.120;17.114;2022-10-22T02:35:02;101249.82;;;28.09;32.77
42511;BME280;28141;51.120;17.114;2022-10-22T02:38:35;101255.88;;;28.06;32.41
42511;BME280;28141;51.120;17.114;2022-10-22T02:41:39;101256.73;;;28.06;32.07
42511;BME280;28141;51.120;17.114;2022-10-22T02:44:43;101247.77;;;28.04;32.49
42511;BME280;28141;51.120;17.114;2022-10-22T02:47:47;101259.43;;;28.01;32.56
42511;BME280;28141;51.120;17.114;2022-10-22T02:50:50;101262.71;;;27.98;32.55
42511;BME280;28141;51.120;17.114;2022-10-22T02:53:54;101263.80;;;27.97;31.97
42511;BME280;28141;51.120;17.114;2022-10-22T02:56:57;101262.71;;;27.98;32.47
42511;BME280;28141;51.120;17.114;2022-10-22T03:00:01;101244.91;;;27.99;32.37
42511;BME280;28141;51.120;17.114;2022-10-22T03:03:04;101242.62;;;27.96;32.32
42511;BME280;28141;51.120;17.114;2022-10-22T03:06:08;101241.77;;;27.95;32.13
42511;BME280;28141;51.120;17.114;2022-10-22T03:09:11;101253.16;;;27.94;31.82
42511;BME280;28141;51.120;17.114;2022-10-22T03:12:15;101257.27;;;27.91;33.04
42511;BME280;28141;51.120;17.114;2022-10-22T03:15:48;101262.27;;;27.89;32.60
42511;BME280;28141;51.120;17.114;2022-10-22T03:18:51;101254.77;;;27.90;32.99
42511;BME280;28141;51.120;17.114;2022-10-22T03:22:09;101254.77;;;27.90;32.36
42511;BME280;28141;51.120;17.114;2022-10-22T03:25:16;101251.62;;;27.86;33.25
42511;BME280;28141;51.120;17.114;2022-10-22T03:28:21;101252.48;;;27.87;33.29
42511;BME280;28141;51.120;17.114;2022-10-22T03:31:25;101248.23;;;27.84;32.71
42511;BME280;28141;51.120;17.114;2022-10-22T03:34:29;101259.86;;;27.81;32.64
42511;BME280;28141;51.120;17.114;2022-10-22T03:37:59;101253.72;;;27.79;32.74
42511;BME280;28141;51.120;17.114;2022-10-22T03:41:04;101255.14;;;27.82;33.24
42511;BME280;28141;51.120;17.114;2022-10-22T03:44:08;101260.09;;;27.80;33.02
42511;BME280;28141;51.120;17.114;2022-10-22T03:47:12;101259.01;;;27.81;33.45
42511;BME280;28141;51.120;17.114;2022-10-22T03:50:15;101256.83;;;27.83;33.16
42511;BME280;28141;51.120;17.114;2022-10-22T03:53:19;101262.65;;;27.81;33.35
42511;BME280;28141;51.120;17.114;2022-10-22T03:56:23;101270.15;;;27.81;32.64
42511;BME280;28141;51.120;17.114;2022-10-22T03:59:27;101276.32;;;27.83;32.98
42511;BME280;28141;51.120;17.114;2022-10-22T04:02:30;101264.58;;;27.81;32.58
42511;BME280;28141;51.120;17.114;2022-10-22T04:05:34;101266.80;;;27.79;32.67
42511;BME280;28141;51.120;17.114;2022-10-22T04:08:41;101269.58;;;27.79;32.79
42511;BME280;28141;51.120;17.114;2022-10-22T04:12:11;101264.74;;;27.74;32.82
42511;BME280;28141;51.120;17.114;2022-10-22T04:15:15;101260.02;;;27.75;32.50
42511;BME280;28141;51.120;17.114;2022-10-22T04:18:19;101256.63;;;27.73;33.23
42511;BME280;28141;51.120;17.114;2022-10-22T04:21:23;101258.08;;;27.75;33.31
42511;BME280;28141;51.120;17.114;2022-10-22T04:24:27;101247.19;;;27.74;32.81
42511;BME280;28141;51.120;17.114;2022-10-22T04:27:33;101237.51;;;27.76;32.23
42511;BME280;28141;51.120;17.114;2022-10-22T04:30:36;101237.51;;;27.76;32.81
42511;BME280;28141;51.120;17.114;2022-10-22T04:33:40;101245.25;;;27.74;33.24
42511;BME280;28141;51.120;17.114;2022-10-22T04:36:44;101240.29;;;27.76;32.59
42511;BME280;28141;51.120;17.114;2022-10-22T04:39:47;101233.87;;;27.76;32.82
42511;BME280;28141;51.120;17.114;2022-10-22T04:43:20;101238.84;;;27.74;32.84
42511;BME280;28141;51.120;17.114;2022-10-22T04:46:24;101251.42;;;27.76;32.62
42511;BME280;28141;51.120;17.114;2022-10-22T04:49:28;101246.19;;;27.80;32.25
42511;BME280;28141;51.120;17.114;2022-10-22T04:52:31;101256.99;;;27.76;32.59
42511;BME280;28141;51.120;17.114;2022-10-22T04:55:35;101263.64;;;27.75;32.54
42511;BME280;28141;51.120;17.114;2022-10-22T04:58:38;101281.80;;;27.78;33.56
42511;BME280;28141;51.120;17.114;2022-10-22T05:01:43;101272.59;;;27.77;33.43
42511;BME280;28141;51.120;17.114;2022-10-22T05:04:46;101266.80;;;27.79;32.82
42511;BME280;28141;51.120;17.114;2022-10-22T05:07:51;101271.75;;;27.77;33.27
42511;BME280;28141;51.120;17.114;2022-10-22T05:10:54;101261.22;;;27.79;32.74
42511;BME280;28141;51.120;17.114;2022-10-22T05:13:59;101262.08;;;27.79;32.32
42511;BME280;28141;51.120;17.114;2022-10-22T05:17:29;101262.65;;;27.81;32.80
42511;BME280;28141;51.120;17.114;2022-10-22T05:20:32;101266.03;;;27.83;33.33
42511;BME280;28141;51.120;17.114;2022-10-22T05:23:36;101279.11;;;27.83;32.85
42511;BME280;28141;51.120;17.114;2022-10-22T05:26:40;101281.88;;;27.83;32.80
42511;BME280;28141;51.120;17.114;2022-10-22T05:29:43;101287.46;;;27.83;32.92
42511;BME280;28141;51.120;17.114;2022-10-22T05:33:53;101294.96;;;27.82;32.51
42511;BME280;28141;51.120;17.114;2022-10-22T05:36:56;101301.37;;;27.83;32.76
42511;BME280;28141;51.120;17.114;2022-10-22T05:40:00;101292.41;;;27.81;33.26
42511;BME280;28141;51.120;17.114;2022-10-22T05:43:03;101295.57;;;27.84;32.71
42511;BME280;28141;51.120;17.114;2022-10-22T05:46:09;101314.80;;;27.86;32.49
42511;BME280;28141;51.120;17.114;2022-10-22T05:49:14;101340.23;;;27.89;33.46
42511;BME280;28141;51.120;17.114;2022-10-22T05:52:18;101338.53;;;27.88;32.28
42511;BME280;28141;51.120;17.114;2022-10-22T05:55:21;101338.78;;;27.87;32.56
42511;BME280;28141;51.120;17.114;2022-10-22T05:58:25;101335.51;;;27.90;32.92
42511;BME280;28141;51.120;17.114;2022-10-22T06:01:30;101343.59;;;27.91;33.23
42511;BME280;28141;51.120;17.114;2022-10-22T06:05:00;101343.10;;;27.94;32.73
42511;BME280;28141;51.120;17.114;2022-10-22T06:08:04;101340.56;;;27.93;32.70
42511;BME280;28141;51.120;17.114;2022-10-22T06:11:08;101344.32;;;27.98;33.05
42511;BME280;28141;51.120;17.114;2022-10-22T06:14:12;101332.09;;;28.00;33.28
42511;BME280;28141;51.120;17.114;2022-10-22T06:17:16;101324.06;;;28.03;32.18
42511;BME280;28141;51.120;17.114;2022-10-22T06:20:21;101325.52;;;28.06;32.43
42511;BME280;28141;51.120;17.114;2022-10-22T06:23:25;101322.48;;;28.07;32.88
42511;BME280;28141;51.120;17.114;2022-10-22T06:26:29;101313.88;;;28.09;32.45
42511;BME280;28141;51.120;17.114;2022-10-22T06:29:33;101324.78;;;28.10;32.83
42511;BME280;28141;51.120;17.114;2022-10-22T06:32:36;101324.86;;;28.15;32.48
42511;BME280;28141;51.120;17.114;2022-10-22T06:36:12;101322.92;;;28.16;32.50
42511;BME280;28141;51.120;17.114;2022-10-22T06:39:16;101328.28;;;28.17;32.58
42511;BME280;28141;51.120;17.114;2022-10-22T06:42:20;101321.37;;;28.20;32.82
42511;BME280;28141;51.120;17.114;2022-10-22T06:45:23;101339.53;;;28.22;32.84
42511;BME280;28141;51.120;17.114;2022-10-22T06:48:27;101327.27;;;28.23;32.32
42511;BME280;28141;51.120;17.114;2022-10-22T06:51:31;101330.06;;;28.23;32.61
42511;BME280;28141;51.120;17.114;2022-10-22T06:54:34;101330.06;;;28.23;32.36
42511;BME280;28141;51.120;17.114;2022-10-22T06:57:38;101342.89;;;28.24;32.75
42511;BME280;28141;51.120;17.114;2022-10-22T07:00:42;101337.68;;;28.28;32.00
42511;BME280;28141;51.120;17.114;2022-10-22T07:03:45;101339.38;;;28.29;31.95
42511;BME280;28141;51.120;17.114;2022-10-22T07:07:17;101356.95;;;28.29;32.37
42511;BME280;28141;51.120;17.114;2022-10-22T07:10:21;101347.98;;;28.27;32.37
42511;BME280;28141;51.120;17.114;2022-10-22T07:13:24;101349.43;;;28.30;32.37
42511;BME280;28141;51.120;17.114;2022-10-22T07:16:28;101343.60;;;28.31;32.31
42511;BME280;28141;51.120;17.114;2022-10-22T07:19:31;101349.18;;;28.31;32.18
42511;BME280;28141;51.120;17.114;2022-10-22T07:22:35;101341.92;;;28.30;32.68
42511;BME280;28141;51.120;17.114;2022-10-22T07:25:39;101343.60;;;28.31;32.77
42511;BME280;28141;51.120;17.114;2022-10-22T07:28:43;101343.09;;;28.34;32.61
42511;BME280;28141;51.120;17.114;2022-10-22T07:31:47;101341.15;;;28.35;32.53
42511;BME280;28141;51.120;17.114;2022-10-22T07:34:50;101350.95;;;28.38;32.84
42511;BME280;28141;51.120;17.114;2022-10-22T07:37:54;101350.71;;;28.39;31.74
42511;BME280;28141;51.120;17.114;2022-10-22T07:41:25;101362.71;;;28.40;32.29
42511;BME280;28141;51.120;17.114;2022-10-22T07:44:29;101366.17;;;28.47;32.49
42511;BME280;28141;51.120;17.114;2022-10-22T07:47:33;101356.23;;;28.51;31.95
42511;BME280;28141;51.120;17.114;2022-10-22T07:50:36;101357.33;;;28.50;32.27
42511;BME280;28141;51.120;17.114;2022-10-22T07:53:39;101359.02;;;28.51;32.13
42511;BME280;28141;51.120;17.114;2022-10-22T07:56:43;101356.58;;;28.54;32.09
42511;BME280;28141;51.120;17.114;2022-10-22T07:59:47;101361.88;;;28.56;32.31
42511;BME280;28141;51.120;17.114;2022-10-22T08:02:50;101363.07;;;28.60;32.51
42511;BME280;28141;51.120;17.114;2022-10-22T08:05:54;101367.31;;;28.62;31.75
42511;BME280;28141;51.120;17.114;2022-10-22T08:08:58;101372.40;;;28.65;32.20
42511;BME280;28141;51.120;17.114;2022-10-22T08:12:01;101368.48;;;28.66;32.37
42511;BME280;28141;51.120;17.114;2022-10-22T08:15:31;101375.50;;;28.69;32.01
42511;BME280;28141;51.120;17.114;2022-10-22T08:18:35;101373.31;;;28.71;32.53
42511;BME280;28141;51.120;17.114;2022-10-22T08:21:41;101370.03;;;28.74;32.29
42511;BME280;28141;51.120;17.114;2022-10-22T08:24:44;101371.48;;;28.77;31.49
42511;BME280;28141;51.120;17.114;2022-10-22T08:27:48;101369.30;;;28.79;32.26
42511;BME280;28141;51.120;17.114;2022-10-22T08:30:52;101369.05;;;28.80;31.94
42511;BME280;28141;51.120;17.114;2022-10-22T08:33:58;101374.13;;;28.83;31.71
42511;BME280;28141;51.120;17.114;2022-10-22T08:37:02;101379.71;;;28.83;31.74
42511;BME280;28141;51.120;17.114;2022-10-22T08:47:13;101408.34;;;28.79;31.86
42511;BME280;28141;51.120;17.114;2022-10-22T08:50:44;101410.63;;;28.82;32.10
42511;BME280;28141;51.120;17.114;2022-10-22T09:00:36;101399.05;;;28.90;31.79
42511;BME280;28141;51.120;17.114;2022-10-22T09:06:58;101386.22;;;29.05;31.66
42511;BME280;28141;51.120;17.114;2022-10-22T09:10:03;101391.88;;;29.11;32.25
42511;BME280;28141;51.120;17.114;2022-10-22T09:13:10;101393.91;;;29.15;31.48
42511;BME280;28141;51.120;17.114;2022-10-22T09:20:06;101390.46;;;29.08;31.50
42511;BME280;28141;51.120;17.114;2022-10-22T09:24:02;101400.59;;;29.14;31.71
42511;BME280;28141;51.120;17.114;2022-10-22T09:26:27;101405.56;;;29.12;31.43
42511;BME280;28141;51.120;17.114;2022-10-22T09:29:32;101407.12;;;29.20;31.10
42511;BME280;28141;51.120;17.114;2022-10-22T09:36:22;101421.13;;;29.25;31.68
42511;BME280;28141;51.120;17.114;2022-10-22T09:39:31;101417.59;;;29.29;31.54
42511;BME280;28141;51.120;17.114;2022-10-22T09:42:35;101412.33;;;29.33;31.41
42511;BME280;28141;51.120;17.114;2022-10-22T09:45:41;101404.55;;;29.35;31.74
42511;BME280;28141;51.120;17.114;2022-10-22T09:52:29;101409.48;;;29.28;31.50
42511;BME280;28141;51.120;17.114;2022-10-22T09:55:38;101402.86;;;29.34;31.25
42511;BME280;28141;51.120;17.114;2022-10-22T09:58:45;101402.38;;;29.37;31.71
42511;BME280;28141;51.120;17.114;2022-10-22T10:01:59;101405.77;;;29.39;31.51
42511;BME280;28141;51.120;17.114;2022-10-22T10:05:03;101412.68;;;29.36;31.38
42511;BME280;28141;51.120;17.114;2022-10-22T10:08:12;101404.67;;;29.40;31.78
42511;BME280;28141;51.120;17.114;2022-10-22T10:11:51;101410.01;;;29.42;31.50
42511;BME280;28141;51.120;17.114;2022-10-22T10:21:34;101422.14;;;29.35;31.50
42511;BME280;28141;51.120;17.114;2022-10-22T10:31:48;101398.81;;;29.25;31.71
42511;BME280;28141;51.120;17.114;2022-10-22T10:35:02;101407.27;;;29.30;32.06
42511;BME280;28141;51.120;17.114;2022-10-22T10:45:11;101416.65;;;29.24;31.35
42511;BME280;28141;51.120;17.114;2022-10-22T10:51:45;101424.42;;;29.22;32.18
42511;BME280;28141;51.120;17.114;2022-10-22T11:02:00;101424.84;;;29.14;32.20
42511;BME280;28141;51.120;17.114;2022-10-22T11:08:56;101422.16;;;29.19;32.19
42511;BME280;28141;51.120;17.114;2022-10-22T11:12:04;101423.07;;;29.24;32.35
42511;BME280;28141;51.120;17.114;2022-10-22T11:18:34;101405.90;;;29.32;31.79
42511;BME280;28141;51.120;17.114;2022-10-22T11:22:15;101405.77;;;29.39;31.99
42511;BME280;28141;51.120;17.114;2022-10-22T11:25:28;101395.71;;;29.38;31.76
42511;BME280;28141;51.120;17.114;2022-10-22T11:28:39;101383.50;;;29.44;31.93
42511;BME280;28141;51.120;17.114;2022-10-22T11:31:45;101385.28;;;29.50;32.53
42511;BME280;28141;51.120;17.114;2022-10-22T11:34:53;101384.84;;;29.58;32.42
42511;BME280;28141;51.120;17.114;2022-10-22T11:38:27;101406.98;;;29.65;31.84
42511;BME280;28141;51.120;17.114;2022-10-22T11:41:32;101398.18;;;29.73;32.09
42511;BME280;28141;51.120;17.114;2022-10-22T11:45:02;101397.14;;;29.79;32.01
42511;BME280;28141;51.120;17.114;2022-10-22T11:54:59;101399.54;;;29.70;31.81
42511;BME280;28141;51.120;17.114;2022-10-22T11:58:24;101393.76;;;29.77;31.53
42511;BME280;28141;51.120;17.114;2022-10-22T12:01:24;101392.48;;;29.85;31.38
42511;BME280;28141;51.120;17.114;2022-10-22T12:08:19;101396.88;;;29.81;31.77
42511;BME280;28141;51.120;17.114;2022-10-22T12:17:59;101386.61;;;29.86;32.30
42511;BME280;28141;51.120;17.114;2022-10-22T12:21:04;101384.83;;;29.97;31.71
42511;BME280;28141;51.120;17.114;2022-10-22T12:24:37;101385.16;;;30.00;31.81
42511;BME280;28141;51.120;17.114;2022-10-22T12:27:42;101386.93;;;30.06;31.17
42511;BME280;28141;51.120;17.114;2022-10-22T12:30:46;101390.55;;;30.07;32.01
42511;BME280;28141;51.120;17.114;2022-10-22T12:33:58;101392.24;;;30.08;32.03
42511;BME280;28141;51.120;17.114;2022-10-22T12:37:03;101387.19;;;30.05;31.56
42511;BME280;28141;51.120;17.114;2022-10-22T12:43:57;101385.96;;;29.96;31.98
42511;BME280;28141;51.120;17.114;2022-10-22T12:47:01;101371.45;;;29.99;32.27
42511;BME280;28141;51.120;17.114;2022-10-22T12:50:05;101378.98;;;29.98;32.81
42511;BME280;28141;51.120;17.114;2022-10-22T12:53:14;101379.83;;;29.99;31.88
42511;BME280;28141;51.120;17.114;2022-10-22T12:56:28;101381.45;;;29.95;32.27
42511;BME280;28141;51.120;17.114;2022-10-22T12:59:36;101380.26;;;29.91;32.83
42511;BME280;28141;51.120;17.114;2022-10-22T13:02:41;101388.05;;;29.89;31.93
42511;BME280;28141;51.120;17.114;2022-10-22T13:06:22;101379.62;;;29.84;32.39
42511;BME280;28141;51.120;17.114;2022-10-22T13:12:47;101374.75;;;29.74;32.53
42511;BME280;28141;51.120;17.114;2022-10-22T13:15:51;101375.56;;;29.74;32.24
42511;BME280;28141;51.120;17.114;2022-10-22T13:18:54;101384.48;;;29.71;32.59
42511;BME280;28141;51.120;17.114;2022-10-22T13:21:58;101385.57;;;29.70;33.07
42511;BME280;28141;51.120;17.114;2022-10-22T13:25:35;101384.39;;;29.66;33.10
42511;BME280;28141;51.120;17.114;2022-10-22T13:28:53;101386.88;;;29.63;33.32
42511;BME280;28141;51.120;17.114;2022-10-22T13:31:57;101382.89;;;29.59;33.00
42511;BME280;28141;51.120;17.114;2022-10-22T13:35:03;101386.29;;;29.61;33.19
42511;BME280;28141;51.120;17.114;2022-10-22T13:38:16;101393.21;;;29.58;33.63
42511;BME280;28141;51.120;17.114;2022-10-22T13:41:25;101388.14;;;29.55;33.57
42511;BME280;28141;51.120;17.114;2022-10-22T13:44:55;101396.45;;;29.50;33.46
42511;BME280;28141;51.120;17.114;2022-10-22T13:47:59;101398.66;;;29.48;33.33
42511;BME280;28141;51.120;17.114;2022-10-22T13:51:06;101406.68;;;29.45;33.07
42511;BME280;28141;51.120;17.114;2022-10-22T13:54:15;101405.24;;;29.42;33.65
42511;BME280;28141;51.120;17.114;2022-10-22T13:57:20;101403.58;;;29.41;33.51
42511;BME280;28141;51.120;17.114;2022-10-22T14:00:25;101413.05;;;29.40;34.05
42511;BME280;28141;51.120;17.114;2022-10-22T14:03:32;101410.76;;;29.37;33.61
42511;BME280;28141;51.120;17.114;2022-10-22T14:06:36;101417.91;;;29.33;33.83
42511;BME280;28141;51.120;17.114;2022-10-22T14:09:40;101424.86;;;29.30;33.67
42511;BME280;28141;51.120;17.114;2022-10-22T14:13:11;101423.67;;;29.26;33.79
42511;BME280;28141;51.120;17.114;2022-10-22T14:16:19;101424.17;;;29.23;33.78
42511;BME280;28141;51.120;17.114;2022-10-22T14:19:22;101415.80;;;29.23;34.21
42511;BME280;28141;51.120;17.114;2022-10-22T14:22:27;101427.49;;;29.20;33.76
42511;BME280;28141;51.120;17.114;2022-10-22T14:25:30;101427.75;;;29.19;34.04
42511;BME280;28141;51.120;17.114;2022-10-22T14:28:34;101428.84;;;29.18;34.08
42511;BME280;28141;51.120;17.114;2022-10-22T14:31:42;101431.62;;;29.18;33.90
42511;BME280;28141;51.120;17.114;2022-10-22T14:34:46;101434.41;;;29.18;34.42
42511;BME280;28141;51.120;17.114;2022-10-22T14:37:50;101440.25;;;29.16;34.08
42511;BME280;28141;51.120;17.114;2022-10-22T14:41:24;101443.63;;;29.18;34.10
42511;BME280;28141;51.120;17.114;2022-10-22T14:44:28;101445.83;;;29.16;33.91
42511;BME280;28141;51.120;17.114;2022-10-22T14:47:32;101448.02;;;29.14;34.09
42511;BME280;28141;51.120;17.114;2022-10-22T14:50:35;101448.52;;;29.11;34.16
42511;BME280;28141;51.120;17.114;2022-10-22T14:53:39;101445.41;;;29.08;34.19
42511;BME280;28141;51.120;17.114;2022-10-22T14:56:43;101445.41;;;29.08;34.08
42511;BME280;28141;51.120;17.114;2022-10-22T14:59:46;101458.15;;;29.03;34.03
42511;BME280;28141;51.120;17.114;2022-10-22T15:02:50;101459.00;;;29.04;34.31
42511;BME280;28141;51.120;17.114;2022-10-22T15:05:53;101460.70;;;29.05;34.26
42511;BME280;28141;51.120;17.114;2022-10-22T15:08:58;101459.25;;;29.02;34.04
42511;BME280;28141;51.120;17.114;2022-10-22T15:12:01;101455.37;;;29.03;34.15
42511;BME280;28141;51.120;17.114;2022-10-22T15:15:31;101463.13;;;29.01;34.22
42511;BME280;28141;51.120;17.114;2022-10-22T15:18:35;101460.59;;;29.00;34.17
42511;BME280;28141;51.120;17.114;2022-10-22T15:21:39;101469.32;;;29.03;34.23
42511;BME280;28141;51.120;17.114;2022-10-22T15:24:43;101469.32;;;29.03;34.42
42511;BME280;28141;51.120;17.114;2022-10-22T15:27:47;101471.85;;;29.05;34.30
42511;BME280;28141;51.120;17.114;2022-10-22T15:30:53;101478.53;;;29.04;34.30
42511;BME280;28141;51.120;17.114;2022-10-22T15:33:56;101479.87;;;29.01;34.69
42511;BME280;28141;51.120;17.114;2022-10-22T15:37:03;101487.06;;;28.97;33.97
42511;BME280;28141;51.120;17.114;2022-10-22T15:40:08;101481.48;;;28.97;34.58
42511;BME280;28141;51.120;17.114;2022-10-22T15:43:12;101495.16;;;28.99;34.31
42511;BME280;28141;51.120;17.114;2022-10-22T15:46:42;101495.44;;;28.97;34.40
42511;BME280;28141;51.120;17.114;2022-10-22T15:49:45;101495.16;;;28.99;34.13
42511;BME280;28141;51.120;17.114;2022-10-22T15:52:50;101508.29;;;28.98;34.50
42511;BME280;28141;51.120;17.114;2022-10-22T15:55:53;101517.99;;;28.96;33.96
42511;BME280;28141;51.120;17.114;2022-10-22T15:59:00;101516.55;;;28.93;34.52
42511;BME280;28141;51.120;17.114;2022-10-22T16:02:09;101515.86;;;28.86;34.77
42511;BME280;28141;51.120;17.114;2022-10-22T16:05:13;101523.70;;;28.89;34.71
42511;BME280;28141;51.120;17.114;2022-10-22T16:08:16;101522.86;;;28.89;34.40
42511;BME280;28141;51.120;17.114;2022-10-22T16:11:22;101522.01;;;28.88;33.83
42511;BME280;28141;51.120;17.114;2022-10-22T16:14:25;101510.86;;;28.88;34.57
42511;BME280;28141;51.120;17.114;2022-10-22T16:17:57;101525.56;;;28.84;34.38
42511;BME280;28141;51.120;17.114;2022-10-22T16:21:03;101525.81;;;28.82;34.20
42511;BME280;28141;51.120;17.114;2022-10-22T16:24:11;101529.69;;;28.81;35.09
42511;BME280;28141;51.120;17.114;2022-10-22T16:27:15;101528.60;;;28.82;34.48
42511;BME280;28141;51.120;17.114;2022-10-22T16:30:19;101542.54;;;28.82;34.82
42511;BME280;28141;51.120;17.114;2022-10-22T16:33:22;101542.54;;;28.82;34.45
42511;BME280;28141;51.120;17.114;2022-10-22T16:36:26;101544.48;;;28.82;34.63
42511;BME280;28141;51.120;17.114;2022-10-22T16:39:30;101550.05;;;28.82;34.54
42511;BME280;28141;51.120;17.114;2022-10-22T16:42:33;101554.53;;;28.83;34.77
42511;BME280;28141;51.120;17.114;2022-10-22T16:45:37;101560.12;;;28.83;34.67
42511;BME280;28141;51.120;17.114;2022-10-22T16:49:07;101560.60;;;28.80;34.55
42511;BME280;28141;51.120;17.114;2022-10-22T16:52:10;101557.82;;;28.80;34.48
42511;BME280;28141;51.120;17.114;2022-10-22T16:55:14;101560.60;;;28.80;34.79
42511;BME280;28141;51.120;17.114;2022-10-22T16:58:18;101553.94;;;28.81;34.44
42511;BME280;28141;51.120;17.114;2022-10-22T17:01:24;101558.66;;;28.80;34.69
42511;BME280;28141;51.120;17.114;2022-10-22T17:04:28;101575.41;;;28.80;34.32
42511;BME280;28141;51.120;17.114;2022-10-22T17:07:32;101568.13;;;28.79;34.85
42511;BME280;28141;51.120;17.114;2022-10-22T17:10:36;101573.95;;;28.78;34.71
42511;BME280;28141;51.120;17.114;2022-10-22T17:13:42;101585.95;;;28.78;34.63
42511;BME280;28141;51.120;17.114;2022-10-22T17:16:46;101590.44;;;28.79;34.40
42511;BME280;28141;51.120;17.114;2022-10-22T17:20:22;101592.58;;;28.77;34.68
42511;BME280;28141;51.120;17.114;2022-10-22T17:23:26;101589.58;;;28.79;34.83
42511;BME280;28141;51.120;17.114;2022-10-22T17:26:32;101596.25;;;28.78;34.56
42511;BME280;28141;51.120;17.114;2022-10-22T17:29:37;101588.73;;;28.78;34.45
42511;BME280;28141;51.120;17.114;2022-10-22T17:32:41;101597.10;;;28.78;34.42
42511;BME280;28141;51.120;17.114;2022-10-22T17:35:45;101602.69;;;28.78;34.88
42511;BME280;28141;51.120;17.114;2022-10-22T17:38:56;101603.73;;;28.77;34.80
42511;BME280;28141;51.120;17.114;2022-10-22T17:42:00;101608.86;;;28.80;34.61
42511;BME280;28141;51.120;17.114;2022-10-22T17:45:05;101609.95;;;28.79;34.54
42511;BME280;28141;51.120;17.114;2022-10-22T17:48:35;101619.41;;;28.78;34.71
42511;BME280;28141;51.120;17.114;2022-10-22T17:51:39;101617.46;;;28.79;34.35
42511;BME280;28141;51.120;17.114;2022-10-22T17:54:43;101621.11;;;28.79;34.78
42511;BME280;28141;51.120;17.114;2022-10-22T17:57:47;101618.55;;;28.78;34.88
42511;BME280;28141;51.120;17.114;2022-10-22T18:00:50;101631.41;;;28.79;34.73
42511;BME280;28141;51.120;17.114;2022-10-22T18:03:58;101634.20;;;28.79;34.61